createdAt,value
2018-12-11T00:00:29.970Z,98792.86
2018-12-11T00:03:00.045Z,98789.31
2018-12-11T00:05:29.889Z,98786.61
2018-12-11T00:07:59.908Z,98796.18
2018-12-11T00:10:30.164Z,98791.58
2018-12-11T00:13:00.266Z,98780.41
2018-12-11T00:15:30.367Z,98784.06
2018-12-11T00:18:00.410Z,98783.83
2018-12-11T00:20:30.440Z,98784.23
2018-12-11T00:23:00.267Z,98780.29
2018-12-11T00:25:30.275Z,98781.94
2018-12-11T00:28:00.248Z,98782.97
2018-12-11T00:30:30.356Z,98780.14
2018-12-11T00:33:00.326Z,98781.58
2018-12-11T00:35:30.457Z,98779.90
2018-12-11T00:38:00.517Z,98782.20
2018-12-11T00:40:30.590Z,98779.66
2018-12-11T00:43:00.559Z,98769.11
2018-12-11T00:45:30.498Z,98773.33
2018-12-11T00:48:00.577Z,98777.65
2018-12-11T00:50:30.915Z,98765.69
2018-12-11T00:53:00.921Z,98771.93
2018-12-11T00:55:31.000Z,98775.88
2018-12-11T00:58:01.316Z,98765.55
2018-12-11T01:00:31.371Z,98770.15
2018-12-11T01:03:01.487Z,98776.77
2018-12-11T01:05:31.597Z,98767.84
2018-12-11T01:08:01.626Z,98766.44
2018-12-11T01:10:31.566Z,98770.80
2018-12-11T01:13:01.441Z,98767.09
2018-12-11T01:15:31.406Z,98774.98
2018-12-11T01:18:01.478Z,98772.80
2018-12-11T01:20:31.425Z,98768.72
2018-12-11T01:23:01.400Z,98777.91
2018-12-11T01:25:31.416Z,98771.53
2018-12-11T01:28:01.399Z,98774.81
2018-12-11T01:30:31.290Z,98774.81
2018-12-11T01:33:01.366Z,98774.83
2018-12-11T01:35:31.365Z,98775.94
2018-12-11T01:38:01.347Z,98772.27
2018-12-11T01:40:31.408Z,98773.91
2018-12-11T01:43:01.310Z,98780.17
2018-12-11T01:45:31.221Z,98782.05
2018-12-11T01:48:01.236Z,98771.84
2018-12-11T01:50:31.268Z,98780.14
2018-12-11T01:53:01.277Z,98782.44
2018-12-11T01:55:31.312Z,98779.52
2018-12-11T01:58:01.300Z,98779.88
2018-12-11T02:00:31.217Z,98782.42
2018-12-11T02:03:01.160Z,98778.34
2018-12-11T02:05:31.251Z,98785.99
2018-12-11T02:08:01.150Z,98785.09
2018-12-11T02:10:31.177Z,98791.58
2018-12-11T02:13:01.086Z,98789.56
2018-12-11T02:15:31.032Z,98791.33
2018-12-11T02:18:01.118Z,98784.70
2018-12-11T02:20:31.061Z,98782.89
2018-12-11T02:23:01.044Z,98780.87
2018-12-11T02:25:31.061Z,98788.52
2018-12-11T02:28:01.091Z,98784.70
2018-12-11T02:30:31.001Z,98787.74
2018-12-11T02:33:01.118Z,98783.91
2018-12-11T02:35:31.037Z,98783.16
2018-12-11T02:38:01.032Z,98784.81
2018-12-11T02:40:31.163Z,98781.11
2018-12-11T02:43:01.374Z,98781.48
2018-12-11T02:45:31.399Z,98780.85
2018-12-11T02:48:01.340Z,98775.39
2018-12-11T02:50:31.273Z,98779.34
2018-12-11T02:53:01.263Z,98782.91
2018-12-11T02:55:31.227Z,98778.94
2018-12-11T02:58:01.289Z,98780.20
2018-12-11T03:00:31.377Z,98774.97
2018-12-11T03:03:01.696Z,98768.88
2018-12-11T03:05:31.637Z,98772.96
2018-12-11T03:08:01.725Z,98768.12
2018-12-11T03:10:31.650Z,98766.05
2018-12-11T03:13:01.968Z,98773.97
2018-12-11T03:15:32.018Z,98762.38
2018-12-11T03:18:02.218Z,98767.59
2018-12-11T03:20:32.152Z,98762.48
2018-12-11T03:23:02.135Z,98769.65
2018-12-11T03:25:32.263Z,98767.59
2018-12-11T03:28:02.293Z,98768.12
2018-12-11T03:30:32.280Z,98763.02
2018-12-11T03:33:02.293Z,98762.48
2018-12-11T03:35:32.204Z,98767.59
2018-12-11T03:38:02.291Z,98766.72
2018-12-11T03:40:32.192Z,98764.17
2018-12-11T03:43:02.260Z,98766.61
2018-12-11T03:45:32.167Z,98764.05
2018-12-11T03:48:02.116Z,98766.09
2018-12-11T03:50:32.130Z,98758.95
2018-12-11T03:53:02.202Z,98757.68
2018-12-11T03:55:32.340Z,98754.38
2018-12-11T03:58:02.382Z,98749.66
2018-12-11T04:00:32.372Z,98754.75
2018-12-11T04:03:02.269Z,98754.88
2018-12-11T04:05:32.251Z,98750.80
2018-12-11T04:08:02.197Z,98747.61
2018-12-11T04:10:32.317Z,98746.08
2018-12-11T04:13:02.333Z,98744.14
2018-12-11T04:15:32.760Z,98741.09
2018-12-11T04:18:02.725Z,98743.10
2018-12-11T04:20:32.783Z,98740.17
2018-12-11T04:23:02.732Z,98739.27
2018-12-11T04:25:32.753Z,98745.02
2018-12-11T04:28:02.834Z,98740.94
2018-12-11T04:30:32.822Z,98735.58
2018-12-11T04:33:02.873Z,98731.45
2018-12-11T04:35:32.883Z,98742.30
2018-12-11T04:38:02.822Z,98736.41
2018-12-11T04:40:32.764Z,98739.09
2018-12-11T04:43:02.829Z,98736.91
2018-12-11T04:45:32.823Z,98736.66
2018-12-11T04:48:02.783Z,98732.05
2018-12-11T04:50:32.832Z,98732.30
2018-12-11T04:53:02.793Z,98726.45
2018-12-11T04:55:32.808Z,98723.64
2018-12-11T04:58:02.718Z,98722.73
2018-12-11T05:00:32.728Z,98718.02
2018-12-11T05:03:02.803Z,98725.52
2018-12-11T05:05:32.650Z,98733.30
2018-12-11T05:08:05.280Z,98732.02
2018-12-11T05:10:35.148Z,98721.81
2018-12-11T05:13:05.158Z,98726.69
2018-12-11T05:15:35.355Z,98718.80
2018-12-11T05:18:05.417Z,98729.27
2018-12-11T05:20:35.568Z,98727.46
2018-12-11T05:23:05.553Z,98727.46
2018-12-11T05:25:35.743Z,98725.58
2018-12-11T05:28:05.867Z,98721.61
2018-12-11T05:30:35.869Z,98719.20
2018-12-11T05:33:06.009Z,98726.70
2018-12-11T05:35:36.112Z,98722.63
2018-12-11T05:38:05.962Z,98722.36
2018-12-11T05:40:36.038Z,98718.77
2018-12-11T05:43:05.981Z,98722.06
2018-12-11T05:45:35.964Z,98725.75
2018-12-11T05:48:05.877Z,98719.11
2018-12-11T05:50:35.981Z,98716.67
2018-12-11T05:53:06.002Z,98713.37
2018-12-11T05:55:35.926Z,98710.03
2018-12-11T05:58:05.838Z,98708.38
2018-12-11T06:00:35.968Z,98711.84
2018-12-11T06:03:05.971Z,98713.60
2018-12-11T06:05:35.936Z,98711.58
2018-12-11T06:08:05.913Z,98715.92
2018-12-11T06:10:35.885Z,98717.34
2018-12-11T06:13:05.727Z,98719.26
2018-12-11T06:15:35.622Z,98721.06
2018-12-11T06:18:05.661Z,98720.05
2018-12-11T06:20:35.615Z,98724.62
2018-12-11T06:23:05.512Z,98721.20
2018-12-11T06:25:35.423Z,98715.43
2018-12-11T06:28:05.471Z,98715.69
2018-12-11T06:30:35.437Z,98721.58
2018-12-11T06:33:05.397Z,98713.44
2018-12-11T06:35:35.399Z,98718.39
2018-12-11T06:38:05.690Z,98714.06
2018-12-11T06:40:35.890Z,98711.41
2018-12-11T06:43:06.011Z,98715.34
2018-12-11T06:45:36.027Z,98718.80
2018-12-11T06:48:06.037Z,98716.24
2018-12-11T06:50:36.067Z,98715.34
2018-12-11T06:53:06.498Z,98713.44
2018-12-11T06:55:36.420Z,98720.80
2018-12-11T06:58:06.626Z,98716.73
2018-12-11T07:00:36.738Z,98713.69
2018-12-11T07:03:06.958Z,98715.34
2018-12-11T07:05:37.070Z,98714.06
2018-12-11T07:08:07.276Z,98719.17
2018-12-11T07:10:37.417Z,98717.78
2018-12-11T07:13:07.377Z,98722.51
2018-12-11T07:15:37.361Z,98714.70
2018-12-11T07:18:07.555Z,98723.90
2018-12-11T07:20:37.646Z,98713.02
2018-12-11T07:23:07.899Z,98724.36
2018-12-11T07:25:37.853Z,98720.05
2018-12-11T07:28:07.888Z,98715.98
2018-12-11T07:30:38.036Z,98719.81
2018-12-11T07:33:07.990Z,98715.72
2018-12-11T07:35:37.900Z,98716.50
2018-12-11T07:38:07.948Z,98718.18
2018-12-11T07:40:37.814Z,98718.55
2018-12-11T07:43:07.822Z,98718.97
2018-12-11T07:45:37.771Z,98711.34
2018-12-11T07:48:07.705Z,98714.14
2018-12-11T07:50:37.900Z,98718.34
2018-12-11T07:53:07.738Z,98728.81
2018-12-11T07:55:37.735Z,98715.83
2018-12-11T07:58:07.709Z,98728.06
2018-12-11T08:00:37.760Z,98722.20
2018-12-11T08:03:07.831Z,98726.14
2018-12-11T08:05:37.769Z,98724.87
2018-12-11T08:08:09.649Z,98733.45
2018-12-11T08:10:39.615Z,98731.16
2018-12-11T08:13:09.645Z,98733.33
2018-12-11T08:15:39.656Z,98733.09
2018-12-11T08:18:09.695Z,98731.47
2018-12-11T08:20:39.686Z,98733.16
2018-12-11T08:23:09.806Z,98731.17
2018-12-11T08:25:39.889Z,98733.23
2018-12-11T08:28:09.930Z,98727.65
2018-12-11T08:30:39.870Z,98735.11
2018-12-11T08:33:09.755Z,98739.88
2018-12-11T08:35:39.768Z,98740.84
2018-12-11T08:38:09.668Z,98744.27
2018-12-11T08:40:39.669Z,98746.91
2018-12-11T08:43:09.640Z,98744.23
2018-12-11T08:45:39.659Z,98749.23
2018-12-11T08:48:09.529Z,98751.91
2018-12-11T08:50:39.543Z,98753.83
2018-12-11T08:53:09.718Z,98759.45
2018-12-11T08:55:39.619Z,98754.58
2018-12-11T08:58:09.519Z,98751.61
2018-12-11T09:00:39.491Z,98752.70
2018-12-11T09:03:09.536Z,98759.08
2018-12-11T09:05:39.511Z,98763.00
2018-12-11T09:08:09.459Z,98762.33
2018-12-11T09:10:39.429Z,98757.52
2018-12-11T09:13:09.448Z,98763.29
2018-12-11T09:15:39.419Z,98760.41
2018-12-11T09:18:09.560Z,98763.11
2018-12-11T09:20:39.783Z,98770.89
2018-12-11T09:23:09.670Z,98772.89
2018-12-11T09:25:39.986Z,98772.02
2018-12-11T09:28:11.198Z,98770.91
2018-12-11T09:30:41.361Z,98768.71
2018-12-11T09:33:11.355Z,98768.30
2018-12-11T09:35:41.253Z,98770.07
2018-12-11T09:38:11.367Z,98773.83
2018-12-11T09:40:41.269Z,98778.60
2018-12-11T09:43:11.250Z,98777.52
2018-12-11T09:45:41.149Z,98775.56
2018-12-11T09:48:11.099Z,98779.61
2018-12-11T09:50:47.441Z,98785.66
2018-12-11T09:53:17.306Z,98784.03
2018-12-11T09:55:47.335Z,98781.09
2018-12-11T09:58:17.249Z,98790.00
2018-12-11T10:00:47.356Z,98790.29
2018-12-11T10:03:17.370Z,98785.42
2018-12-11T10:05:47.439Z,98786.05
2018-12-11T10:08:19.628Z,98792.80
2018-12-11T10:10:49.515Z,98782.17
2018-12-11T10:13:19.556Z,98787.53
2018-12-11T10:15:49.514Z,98783.56
2018-12-11T10:18:19.510Z,98789.13
2018-12-11T10:20:49.451Z,98788.87
2018-12-11T10:23:19.721Z,98791.38
2018-12-11T10:25:49.990Z,98787.14
2018-12-11T10:28:19.981Z,98797.99
2018-12-11T10:30:49.823Z,98795.64
2018-12-11T10:33:19.808Z,98796.36
2018-12-11T10:35:49.647Z,98792.77
2018-12-11T10:38:19.510Z,98803.96
2018-12-11T10:40:49.456Z,98803.92
2018-12-11T10:43:19.356Z,98806.45
2018-12-11T10:45:49.178Z,98799.38
2018-12-11T10:48:19.059Z,98803.99
2018-12-11T10:50:48.893Z,98805.80
2018-12-11T10:53:18.683Z,98804.81
2018-12-11T10:55:48.751Z,98808.27
2018-12-11T10:58:18.597Z,98806.73
2018-12-11T11:00:52.406Z,98810.53
2018-12-11T11:03:22.274Z,98822.66
2018-12-11T11:05:52.114Z,98820.76
2018-12-11T11:08:21.954Z,98830.50
2018-12-11T11:10:51.779Z,98827.72
2018-12-11T11:13:21.690Z,98829.34
2018-12-11T11:15:51.554Z,98833.17
2018-12-11T11:18:21.426Z,98829.67
2018-12-11T11:20:51.485Z,98829.34
2018-12-11T11:23:21.457Z,98832.73
2018-12-11T11:25:51.458Z,98835.69
2018-12-11T11:28:21.375Z,98835.45
2018-12-11T11:30:51.395Z,98841.63
2018-12-11T11:33:21.310Z,98843.84
2018-12-11T11:35:51.137Z,98858.89
2018-12-11T11:38:21.035Z,98865.89
2018-12-11T11:40:50.982Z,98857.09
2018-12-11T11:43:20.960Z,98864.38
2018-12-11T11:45:50.779Z,98867.22
2018-12-11T11:48:20.674Z,98873.97
2018-12-11T11:50:50.480Z,98874.11
2018-12-11T11:53:20.407Z,98881.87
2018-12-11T11:55:50.222Z,98885.20
2018-12-11T11:58:20.141Z,98890.67
2018-12-11T12:00:50.043Z,98888.66
2018-12-11T12:03:19.955Z,98895.40
2018-12-11T12:05:49.845Z,98892.47
2018-12-11T12:08:19.649Z,98885.85
2018-12-11T12:10:49.715Z,98889.16
2018-12-11T12:13:19.600Z,98889.30
2018-12-11T12:15:49.514Z,98896.34
2018-12-11T12:18:19.440Z,98892.98
2018-12-11T12:20:49.326Z,98902.30
2018-12-11T12:23:19.158Z,98902.31
2018-12-11T12:25:49.005Z,98896.21
2018-12-11T12:28:18.870Z,98905.80
2018-12-11T12:30:49.621Z,98905.10
2018-12-11T12:33:19.434Z,98914.19
2018-12-11T12:35:49.330Z,98909.60
2018-12-11T12:38:19.190Z,98911.92
2018-12-11T12:40:49.056Z,98911.39
2018-12-11T12:43:18.920Z,98922.89
2018-12-11T12:45:48.789Z,98924.05
2018-12-11T12:48:18.999Z,98930.06
2018-12-11T12:50:48.916Z,98937.31
2018-12-11T12:53:18.822Z,98939.47
2018-12-11T12:55:48.750Z,98936.80
2018-12-11T12:58:18.646Z,98941.30
2018-12-11T13:00:48.662Z,98949.10
2018-12-11T13:03:18.475Z,98950.38
2018-12-11T13:05:48.368Z,98949.62
2018-12-11T13:08:18.198Z,98950.66
2018-12-11T13:10:48.050Z,98950.38
2018-12-11T13:13:17.914Z,98956.77
2018-12-11T13:15:47.847Z,98959.20
2018-12-11T13:18:17.753Z,98970.58
2018-12-11T13:20:47.662Z,98974.78
2018-12-11T13:23:17.606Z,98979.64
2018-12-11T13:25:47.585Z,98984.37
2018-12-11T13:28:17.438Z,98980.05
2018-12-11T13:30:47.701Z,98984.25
2018-12-11T13:33:17.520Z,98988.45
2018-12-11T13:35:47.550Z,98989.73
2018-12-11T13:38:17.469Z,98990.52
2018-12-11T13:40:47.813Z,98997.39
2018-12-11T13:43:17.690Z,98990.63
2018-12-11T13:45:47.717Z,98998.67
2018-12-11T13:48:23.288Z,99003.78
2018-12-11T13:50:49.685Z,99011.19
2018-12-11T13:53:19.473Z,99017.83
2018-12-11T13:55:49.345Z,99006.86
2018-12-11T13:58:19.645Z,99017.58
2018-12-11T14:00:49.599Z,99015.02
2018-12-11T14:03:19.447Z,99025.48
2018-12-11T14:05:49.371Z,99027.79
2018-12-11T14:08:19.194Z,99026.14
2018-12-11T14:10:49.127Z,99035.32
2018-12-11T14:13:19.012Z,99030.58
2018-12-11T14:15:48.942Z,99048.72
2018-12-11T14:18:18.835Z,99046.16
2018-12-11T14:20:48.704Z,99054.86
2018-12-11T14:23:18.593Z,99052.97
2018-12-11T14:25:48.498Z,99062.78
2018-12-11T14:28:24.525Z,99062.91
2018-12-11T14:30:54.438Z,99055.13
2018-12-11T14:33:24.337Z,99061.77
2018-12-11T14:35:54.162Z,99057.94
2018-12-11T14:38:24.017Z,99063.17
2018-12-11T14:40:53.879Z,99071.48
2018-12-11T14:43:24.055Z,99064.31
2018-12-11T14:45:54.084Z,99067.78
2018-12-11T14:48:23.965Z,99066.88
2018-12-11T14:50:53.989Z,99067.12
2018-12-11T14:53:23.881Z,99076.59
2018-12-11T14:55:53.993Z,99081.28
2018-12-11T14:58:23.885Z,99081.41
2018-12-11T15:00:53.707Z,99086.65
2018-12-11T15:03:23.635Z,99085.13
2018-12-11T15:05:53.544Z,99095.57
2018-12-11T15:08:23.543Z,99103.09
2018-12-11T15:10:53.520Z,99104.42
2018-12-11T15:13:23.487Z,99103.00
2018-12-11T15:15:53.406Z,99099.66
2018-12-11T15:18:23.338Z,99102.99
2018-12-11T15:20:53.310Z,99103.63
2018-12-11T15:23:23.350Z,99107.31
2018-12-11T15:25:53.391Z,99106.05
2018-12-11T15:28:23.225Z,99112.43
2018-12-11T15:33:51.661Z,99116.55
2018-12-11T15:36:21.676Z,99115.89
2018-12-11T15:38:51.913Z,99123.67
2018-12-11T15:41:21.830Z,99128.78
2018-12-11T15:43:51.773Z,99129.44
2018-12-11T15:46:22.152Z,99132.48
2018-12-11T15:48:52.115Z,99130.59
2018-12-11T15:51:22.310Z,99138.13
2018-12-11T15:53:52.925Z,99142.06
2018-12-11T15:56:22.985Z,99145.52
2018-12-11T15:58:52.917Z,99137.59
2018-12-11T16:01:22.848Z,99146.81
2018-12-11T16:03:53.160Z,99143.00
2018-12-11T16:06:23.186Z,99153.08
2018-12-11T16:08:53.306Z,99152.18
2018-12-11T16:11:23.245Z,99151.28
2018-12-11T16:13:53.358Z,99160.75
2018-12-11T16:16:23.320Z,99165.98
2018-12-11T16:18:53.300Z,99159.23
2018-12-11T16:21:23.379Z,99164.22
2018-12-11T16:23:53.495Z,99165.25
2018-12-11T16:26:23.400Z,99174.18
2018-12-11T16:28:53.435Z,99174.31
2018-12-11T16:31:23.384Z,99180.16
2018-12-11T16:33:53.357Z,99175.71
2018-12-11T16:36:23.305Z,99179.78
2018-12-11T16:38:53.169Z,99178.75
2018-12-11T16:41:23.485Z,99182.20
2018-12-11T16:43:53.944Z,99195.87
2018-12-11T16:46:26.959Z,99191.14
2018-12-11T16:48:56.904Z,99187.81
2018-12-11T16:51:26.947Z,99193.45
2018-12-11T16:53:56.966Z,99194.97
2018-12-11T16:56:27.790Z,99193.31
2018-12-11T16:58:57.748Z,99195.59
2018-12-11T17:01:27.646Z,99201.34
2018-12-11T17:03:57.675Z,99206.08
2018-12-11T17:06:28.977Z,99196.61
2018-12-11T17:08:59.299Z,99209.91
2018-12-11T17:27:01.428Z,99228.14
2018-12-11T17:29:31.480Z,99235.55
2018-12-11T17:32:01.798Z,99237.33
2018-12-11T17:34:32.229Z,99239.51
2018-12-11T17:37:02.180Z,99238.36
2018-12-11T17:39:32.165Z,99238.11
2018-12-11T17:42:02.518Z,99243.21
2018-12-11T17:44:32.797Z,99241.94
2018-12-11T17:47:04.018Z,99247.78
2018-12-11T17:49:34.394Z,99252.02
2018-12-11T17:52:04.374Z,99251.72
2018-12-11T17:54:34.487Z,99241.92
2018-12-11T17:57:05.970Z,99250.84
2018-12-11T17:59:36.187Z,99248.66
2018-12-11T18:02:08.183Z,99255.42
2018-12-11T18:04:44.892Z,99256.19
2018-12-11T18:07:15.428Z,99258.74
2018-12-11T18:09:45.449Z,99266.11
2018-12-11T18:12:15.411Z,99269.17
2018-12-11T18:14:45.751Z,99271.59
2018-12-11T18:17:18.734Z,99274.14
2018-12-11T18:19:53.058Z,99271.42
2018-12-11T18:22:24.380Z,99274.52
2018-12-11T18:24:54.956Z,99280.89
2018-12-11T18:27:31.421Z,99282.17
2018-12-11T18:30:01.527Z,99274.63
2018-12-11T18:32:31.621Z,99277.78
2018-12-11T18:35:02.294Z,99279.83
2018-12-11T18:37:35.861Z,99278.30
2018-12-11T18:40:09.453Z,99277.52
2018-12-11T18:42:40.592Z,99281.34
2018-12-11T18:45:14.229Z,99280.60
2018-12-11T18:47:50.027Z,99284.94
2018-12-11T18:50:22.191Z,99284.02
2018-12-11T18:52:52.772Z,99288.89
2018-12-11T18:55:22.853Z,99292.11
2018-12-11T18:57:53.522Z,99294.66
2018-12-11T19:00:24.538Z,99304.86
2018-12-11T19:02:55.732Z,99307.02
2018-12-11T19:05:31.053Z,99305.13
2018-12-11T19:08:01.073Z,99305.87
2018-12-11T19:10:31.126Z,99311.50
2018-12-11T19:13:10.198Z,99312.39
2018-12-11T19:15:44.008Z,99310.20
2018-12-11T19:18:23.501Z,99315.94
2018-12-11T19:20:54.325Z,99315.81
2018-12-11T19:23:39.758Z,99316.58
2018-12-11T19:26:09.972Z,99321.45
2018-12-11T19:28:39.977Z,99317.34
2018-12-11T19:31:15.412Z,99324.87
2018-12-11T19:33:48.412Z,99311.61
2018-12-11T19:36:18.457Z,99318.90
2018-12-11T19:38:52.667Z,99320.28
2018-12-11T19:41:26.656Z,99321.45
2018-12-11T19:46:37.194Z,99321.95
2018-12-11T19:49:07.997Z,99328.97
2018-12-11T19:51:39.952Z,99325.77
2018-12-11T19:54:13.295Z,99330.37
2018-12-11T19:56:46.907Z,99335.48
2018-12-11T19:59:18.167Z,99346.55
2018-12-11T20:01:48.891Z,99343.63
2018-12-11T20:04:19.561Z,99346.45
2018-12-11T20:06:58.797Z,99343.63
2018-12-11T20:09:28.827Z,99352.56
2018-12-11T20:12:03.102Z,99352.56
2018-12-11T20:14:35.642Z,99355.25
2018-12-11T20:17:07.743Z,99354.51
2018-12-11T20:19:39.945Z,99357.80
2018-12-11T20:22:15.134Z,99358.34
2018-12-11T20:24:47.186Z,99361.89
2018-12-11T20:27:19.241Z,99360.34
2018-12-11T20:29:49.856Z,99355.12
2018-12-11T20:32:23.977Z,99358.17
2018-12-11T20:34:54.962Z,99362.77
2018-12-11T20:37:33.939Z,99356.66
2018-12-11T20:40:07.602Z,99355.25
2018-12-11T20:42:38.287Z,99357.43
2018-12-11T20:45:10.538Z,99364.05
2018-12-11T20:47:43.680Z,99370.19
2018-12-11T20:50:15.129Z,99366.36
2018-12-11T20:52:46.366Z,99369.41
2018-12-11T20:55:17.240Z,99375.05
2018-12-11T20:57:52.778Z,99364.31
2018-12-11T21:00:32.735Z,99366.23
2018-12-11T21:05:49.316Z,99370.92
2018-12-11T21:08:21.840Z,99376.80
2018-12-11T21:10:53.700Z,99377.30
2018-12-11T21:13:28.344Z,99377.03
2018-12-11T21:16:03.090Z,99381.13
2018-12-11T21:18:40.527Z,99380.02
2018-12-11T21:21:17.596Z,99373.88
2018-12-11T21:23:49.399Z,99384.72
2018-12-11T21:26:19.631Z,99379.12
2018-12-11T21:28:51.605Z,99384.72
2018-12-11T21:31:22.659Z,99393.15
2018-12-11T21:33:52.720Z,99391.41
2018-12-11T21:36:24.244Z,99391.50
2018-12-11T21:38:56.335Z,99394.42
2018-12-11T21:41:27.895Z,99397.61
2018-12-11T21:44:02.380Z,99401.17
2018-12-11T21:46:33.791Z,99402.05
2018-12-11T21:49:04.142Z,99404.50
2018-12-11T21:51:34.075Z,99406.64
2018-12-11T21:54:06.031Z,99403.22
2018-12-11T21:56:41.241Z,99408.69
2018-12-11T21:59:17.865Z,99405.37
2018-12-11T22:01:47.970Z,99402.31
2018-12-11T22:04:17.930Z,99402.69
2018-12-11T22:06:47.832Z,99400.80
2018-12-11T22:09:17.936Z,99394.16
2018-12-11T22:11:47.980Z,99405.37
2018-12-11T22:14:18.469Z,99405.64
2018-12-11T22:16:48.382Z,99400.53
2018-12-11T22:19:18.606Z,99407.19
2018-12-11T22:21:48.514Z,99404.50
2018-12-11T22:24:18.506Z,99405.34
2018-12-11T22:26:48.486Z,99402.55
2018-12-11T22:29:18.440Z,99402.18
2018-12-11T22:31:48.477Z,99408.42
2018-12-11T22:34:18.491Z,99407.25
2018-12-11T22:36:48.335Z,99409.02
2018-12-11T22:39:18.275Z,99415.80
2018-12-11T22:41:48.336Z,99417.82
2018-12-11T22:44:18.308Z,99413.96
2018-12-11T22:46:48.275Z,99425.57
2018-12-11T22:49:18.272Z,99422.28
2018-12-11T22:51:48.291Z,99423.93
2018-12-11T22:54:18.779Z,99429.50
2018-12-11T22:56:48.741Z,99427.58
2018-12-11T22:59:18.747Z,99424.63
2018-12-11T23:01:48.866Z,99427.68
2018-12-11T23:04:18.790Z,99428.41
2018-12-11T23:06:48.806Z,99427.05
2018-12-11T23:09:18.740Z,99426.09
2018-12-11T23:11:48.969Z,99430.70
2018-12-11T23:14:19.043Z,99438.98
2018-12-11T23:16:49.167Z,99438.85
2018-12-11T23:19:19.065Z,99437.30
2018-12-11T23:21:48.979Z,99439.34
2018-12-11T23:24:19.100Z,99448.23
2018-12-11T23:26:49.048Z,99440.27
2018-12-11T23:29:18.950Z,99443.05
2018-12-11T23:31:48.849Z,99444.09
2018-12-11T23:34:18.789Z,99448.92
2018-12-11T23:36:48.654Z,99446.73
2018-12-11T23:39:18.590Z,99452.88
2018-12-11T23:41:48.475Z,99453.25
2018-12-11T23:44:18.517Z,99453.02
2018-12-11T23:46:48.528Z,99458.43
2018-12-11T23:49:18.536Z,99458.13
2018-12-11T23:51:48.474Z,99457.38
2018-12-11T23:54:18.551Z,99459.53
2018-12-11T23:56:48.586Z,99458.43
2018-12-11T23:59:18.596Z,99458.43
